createdAt,value
2022-08-16T00:02:23.337Z,99900.47
2022-08-16T00:04:51.182Z,99893.06
2022-08-16T00:07:18.647Z,99895.97
2022-08-16T00:09:45.173Z,99905.47
2022-08-16T00:12:12.047Z,99893.84
2022-08-16T00:14:45.513Z,99893.28
2022-08-16T00:17:18.276Z,99892.97
2022-08-16T00:19:45.545Z,99895.84
2022-08-16T00:22:15.217Z,99901.69
2022-08-16T00:24:44.583Z,99904.59
2022-08-16T00:27:13.892Z,99916.06
2022-08-16T00:29:41.617Z,99908.50
2022-08-16T00:32:08.118Z,99911.53
2022-08-16T00:34:44.781Z,99918.91
2022-08-16T00:37:20.664Z,99913.31
2022-08-16T00:39:57.302Z,99914.31
2022-08-16T00:42:30.322Z,99917.22
2022-08-16T00:44:57.918Z,99927.72
2022-08-16T00:47:25.341Z,99927.28
2022-08-16T00:49:56.885Z,99917.06
2022-08-16T00:52:30.373Z,99919.53
2022-08-16T00:54:58.238Z,99913.53
2022-08-16T00:57:24.723Z,99920.78
2022-08-16T00:59:59.005Z,99918.44
2022-08-16T01:02:31.208Z,99914.63
2022-08-16T01:05:09.009Z,99914.75
2022-08-16T01:07:51.823Z,99913.97
2022-08-16T01:10:20.827Z,99909.06
2022-08-16T01:12:47.514Z,99918.69
2022-08-16T01:15:14.076Z,99910.13
2022-08-16T01:17:40.585Z,99916.09
2022-08-16T01:20:23.599Z,99913.59
2022-08-16T01:22:52.500Z,99912.66
2022-08-16T01:25:19.194Z,99913.00
2022-08-16T01:27:48.194Z,99912.94
2022-08-16T01:30:20.659Z,99908.50
2022-08-16T01:32:56.442Z,99908.50
2022-08-16T01:35:29.473Z,99906.75
2022-08-16T01:38:02.610Z,99897.09
2022-08-16T01:40:32.380Z,99894.44
2022-08-16T01:43:00.630Z,99887.97
2022-08-16T01:45:40.375Z,99895.28
2022-08-16T01:48:19.828Z,99887.34
2022-08-16T01:51:16.428Z,99877.97
2022-08-16T01:53:33.427Z,99881.28
2022-08-16T01:56:00.083Z,99875.16
2022-08-16T01:58:27.526Z,99873.66
2022-08-16T02:00:54.984Z,99870.53
2022-08-16T02:03:24.323Z,99870.63
2022-08-16T02:05:53.093Z,99867.53
2022-08-16T02:08:32.756Z,99865.59
2022-08-16T02:11:00.617Z,99856.44
2022-08-16T02:13:28.103Z,99862.25
2022-08-16T02:15:59.426Z,99862.25
2022-08-16T02:18:25.956Z,99864.72
2022-08-16T02:20:53.605Z,99862.13
2022-08-16T02:23:20.212Z,99860.94
2022-08-16T02:25:51.762Z,99871.81
2022-08-16T02:28:20.612Z,99873.56
2022-08-16T02:30:52.066Z,99866.69
2022-08-16T02:33:18.735Z,99864.72
2022-08-16T02:35:49.678Z,99866.13
2022-08-16T02:38:22.068Z,99855.31
2022-08-16T02:40:48.635Z,99863.69
2022-08-16T02:43:16.106Z,99858.19
2022-08-16T02:45:42.599Z,99848.69
2022-08-16T02:48:29.435Z,99859.44
2022-08-16T02:51:06.784Z,99860.09
2022-08-16T02:53:38.603Z,99860.50
2022-08-16T02:56:09.877Z,99861.91
2022-08-16T02:58:37.538Z,99861.38
2022-08-16T03:01:05.571Z,99867.72
2022-08-16T03:04:29.848Z,99860.66
2022-08-16T03:06:41.871Z,99857.53
2022-08-16T03:09:06.062Z,99862.56
2022-08-16T03:11:35.506Z,99864.97
2022-08-16T03:14:02.183Z,99860.06
2022-08-16T03:16:39.153Z,99855.25
2022-08-16T03:19:08.634Z,99853.59
2022-08-16T03:21:37.815Z,99854.19
2022-08-16T03:24:04.847Z,99862.19
2022-08-16T03:26:31.618Z,99864.28
2022-08-16T03:28:58.512Z,99868.06
2022-08-16T03:31:34.489Z,99875.00
2022-08-16T03:34:01.463Z,99876.41
2022-08-16T03:36:30.849Z,99877.69
2022-08-16T03:39:00.174Z,99875.13
2022-08-16T03:41:49.693Z,99873.34
2022-08-16T03:44:44.404Z,99879.25
2022-08-16T03:47:04.672Z,99892.19
2022-08-16T03:49:37.646Z,99884.88
2022-08-16T03:52:06.100Z,99889.41
2022-08-16T03:54:32.591Z,99887.44
2022-08-16T03:57:03.087Z,99890.53
2022-08-16T03:59:31.709Z,99889.66
2022-08-16T04:01:59.145Z,99891.81
2022-08-16T04:04:33.045Z,99895.72
2022-08-16T04:07:02.879Z,99894.50
2022-08-16T04:09:30.949Z,99904.31
2022-08-16T04:12:02.237Z,99905.97
2022-08-16T04:14:32.696Z,99906.31
2022-08-16T04:17:00.870Z,99910.44
2022-08-16T04:19:31.646Z,99912.63
2022-08-16T04:21:58.482Z,99908.69
2022-08-16T04:24:28.782Z,99910.00
2022-08-16T04:26:55.550Z,99906.81
2022-08-16T04:29:24.912Z,99907.22
2022-08-16T04:31:56.682Z,99908.78
2022-08-16T04:34:24.826Z,99907.22
2022-08-16T04:36:51.522Z,99910.47
2022-08-16T04:39:20.090Z,99911.22
2022-08-16T04:41:57.004Z,99906.66
2022-08-16T04:44:32.831Z,99907.81
2022-08-16T04:47:24.104Z,99904.34
2022-08-16T04:49:52.352Z,99906.63
2022-08-16T04:52:33.580Z,99912.13
2022-08-16T04:55:03.493Z,99905.75
2022-08-16T04:57:30.445Z,99910.88
2022-08-16T04:59:57.070Z,99911.41
2022-08-16T05:02:42.024Z,99917.44
2022-08-16T05:05:09.203Z,99916.16
2022-08-16T05:07:58.530Z,99918.38
2022-08-16T05:10:26.808Z,99924.50
2022-08-16T05:12:54.800Z,99924.06
2022-08-16T05:15:23.210Z,99924.59
2022-08-16T05:17:55.488Z,99926.41
2022-08-16T05:20:39.049Z,99927.09
2022-08-16T05:23:15.027Z,99930.16
2022-08-16T05:25:48.478Z,99928.69
2022-08-16T05:28:16.306Z,99924.78
2022-08-16T05:30:43.765Z,99931.34
2022-08-16T05:33:16.415Z,99926.84
2022-08-16T05:35:43.443Z,99930.06
2022-08-16T05:38:32.996Z,99931.81
2022-08-16T05:40:59.907Z,99930.13
2022-08-16T05:43:26.648Z,99937.09
2022-08-16T05:45:53.137Z,99935.47
2022-08-16T05:48:20.471Z,99933.63
2022-08-16T05:50:53.540Z,99945.75
2022-08-16T05:53:20.058Z,99940.47
2022-08-16T05:55:50.773Z,99936.81
2022-08-16T05:58:31.401Z,99935.22
2022-08-16T06:00:59.573Z,99932.53
2022-08-16T06:03:26.131Z,99931.41
2022-08-16T06:05:56.162Z,99930.06
2022-08-16T06:08:31.782Z,99927.72
2022-08-16T06:11:05.618Z,99929.97
2022-08-16T06:13:37.090Z,99928.41
2022-08-16T06:16:04.486Z,99931.41
2022-08-16T06:18:33.514Z,99927.53
2022-08-16T06:21:00.117Z,99930.97
2022-08-16T06:23:27.242Z,99933.69
2022-08-16T06:25:59.997Z,99933.13
2022-08-16T06:28:36.230Z,99934.25
2022-08-16T06:31:03.759Z,99934.91
2022-08-16T06:33:41.995Z,99941.75
2022-08-16T06:36:08.822Z,99939.72
2022-08-16T06:38:35.429Z,99933.03
2022-08-16T06:41:02.008Z,99935.44
2022-08-16T06:43:29.031Z,99932.44
2022-08-16T06:45:56.451Z,99939.72
2022-08-16T06:48:32.852Z,99928.09
2022-08-16T06:51:00.141Z,99933.38
2022-08-16T06:53:26.698Z,99934.41
2022-08-16T06:55:56.248Z,99936.28
2022-08-16T06:58:31.871Z,99932.03
2022-08-16T07:01:00.506Z,99934.84
2022-08-16T07:03:32.578Z,99938.88
2022-08-16T07:06:17.113Z,99930.38
2022-08-16T07:08:48.294Z,99936.88
2022-08-16T07:11:15.732Z,99936.09
2022-08-16T07:14:00.262Z,99934.84
2022-08-16T07:16:32.289Z,99927.56
2022-08-16T07:19:01.816Z,99923.84
2022-08-16T07:21:46.331Z,99932.19
2022-08-16T07:24:30.525Z,99932.75
2022-08-16T07:26:58.542Z,99937.47
2022-08-16T07:29:26.014Z,99925.47
2022-08-16T07:31:53.945Z,99938.34
2022-08-16T07:34:35.236Z,99927.94
2022-08-16T07:37:02.431Z,99923.78
2022-08-16T07:39:33.860Z,99918.06
2022-08-16T07:42:00.663Z,99916.84
2022-08-16T07:44:27.146Z,99909.31
2022-08-16T07:46:55.655Z,99915.59
2022-08-16T07:49:22.924Z,99915.59
2022-08-16T07:51:54.467Z,99919.50
2022-08-16T07:54:38.024Z,99917.81
2022-08-16T07:57:11.334Z,99915.25
2022-08-16T07:59:45.653Z,99914.00
2022-08-16T08:02:20.171Z,99922.41
2022-08-16T08:04:48.264Z,99919.59
2022-08-16T08:07:16.588Z,99919.28
2022-08-16T08:09:43.485Z,99918.50
2022-08-16T08:12:32.576Z,99922.53
2022-08-16T08:14:58.424Z,99925.66
2022-08-16T08:17:24.959Z,99932.06
2022-08-16T08:20:10.794Z,99929.25
2022-08-16T08:22:38.001Z,99926.47
2022-08-16T08:25:04.465Z,99933.63
2022-08-16T08:27:32.669Z,99925.22
2022-08-16T08:30:50.138Z,99925.31
2022-08-16T08:32:58.776Z,99931.47
2022-08-16T08:35:28.449Z,99931.41
2022-08-16T08:37:56.468Z,99941.22
2022-08-16T08:40:24.264Z,99941.84
2022-08-16T08:42:57.827Z,99945.19
2022-08-16T08:45:47.356Z,99939.16
2022-08-16T08:48:34.282Z,99943.88
2022-08-16T08:51:01.455Z,99944.47
2022-08-16T08:53:29.945Z,99945.69
2022-08-16T08:55:59.011Z,99943.22
2022-08-16T08:58:34.577Z,99944.78
2022-08-16T09:01:02.186Z,99946.94
2022-08-16T09:03:28.857Z,99944.25
2022-08-16T09:06:00.478Z,99953.13
2022-08-16T09:08:28.081Z,99943.56
2022-08-16T09:10:58.850Z,99943.56
2022-08-16T09:13:32.826Z,99945.59
2022-08-16T09:16:00.364Z,99944.03
2022-08-16T09:18:27.773Z,99944.81
2022-08-16T09:21:03.417Z,99944.81
2022-08-16T09:23:31.025Z,99942.78
2022-08-16T09:26:03.747Z,99952.78
2022-08-16T09:29:15.089Z,99945.94
2022-08-16T09:31:41.279Z,99954.34
2022-08-16T09:34:08.429Z,99950.75
2022-08-16T09:36:35.880Z,99951.22
2022-08-16T09:39:02.442Z,99953.22
2022-08-16T09:41:29.966Z,99956.47
2022-08-16T09:43:59.534Z,99955.22
2022-08-16T09:46:45.785Z,99951.66
2022-08-16T09:49:14.976Z,99962.09
2022-08-16T09:51:42.174Z,99969.25
2022-08-16T09:54:10.451Z,99965.22
2022-08-16T09:56:52.137Z,99965.22
2022-08-16T09:59:20.015Z,99966.00
2022-08-16T10:01:47.505Z,99979.22
2022-08-16T10:04:30.948Z,99981.25
2022-08-16T10:07:02.156Z,99984.84
2022-08-16T10:09:45.174Z,99989.22
2022-08-16T10:12:19.595Z,99985.63
2022-08-16T10:14:47.422Z,99990.00
2022-08-16T10:17:14.682Z,99987.97
2022-08-16T10:19:41.340Z,99990.78
2022-08-16T10:22:10.781Z,99993.56
2022-08-16T10:24:40.437Z,99990.78
2022-08-16T10:27:26.382Z,99986.75
2022-08-16T10:30:00.262Z,99993.13
2022-08-16T10:32:30.613Z,100004.34
2022-08-16T10:34:59.478Z,100000.31
2022-08-16T10:37:32.760Z,99999.19
2022-08-16T10:40:02.934Z,100004.34
2022-08-16T10:42:29.452Z,99999.06
2022-08-16T10:44:56.389Z,100001.09
2022-08-16T10:47:24.045Z,100003.13
2022-08-16T10:49:51.026Z,100009.50
2022-08-16T10:52:19.070Z,100016.66
2022-08-16T10:57:35.017Z,100023.06
2022-08-16T11:00:02.499Z,100022.25
2022-08-16T11:02:59.635Z,100021.03
2022-08-16T11:05:17.835Z,100017.47
2022-08-16T11:07:51.674Z,100026.66
2022-08-16T11:10:20.858Z,100024.63
2022-08-16T11:12:47.630Z,100020.59
2022-08-16T11:15:19.363Z,100015.00
2022-08-16T11:17:46.303Z,100031.38
2022-08-16T11:20:41.044Z,100030.59
2022-08-16T11:23:08.864Z,100030.59
2022-08-16T11:31:09.470Z,100031.38
2022-08-16T11:33:55.511Z,100035.72
2022-08-16T11:36:28.032Z,100029.78
2022-08-16T11:38:57.499Z,100038.53
2022-08-16T11:41:24.916Z,100037.75
2022-08-16T11:43:53.004Z,100034.16
2022-08-16T11:46:34.294Z,100035.72
2022-08-16T11:49:09.922Z,100036.53
2022-08-16T11:51:39.365Z,100033.72
2022-08-16T11:54:05.869Z,100024.88
2022-08-16T11:56:52.834Z,100031.25
2022-08-16T11:59:25.496Z,100026.41
2022-08-16T12:01:59.298Z,100030.47
2022-08-16T12:04:26.706Z,100034.06
2022-08-16T12:06:53.713Z,100028.44
2022-08-16T12:09:21.135Z,100026.41
2022-08-16T12:11:52.391Z,100035.16
2022-08-16T12:14:20.036Z,100013.97
2022-08-16T12:16:55.607Z,100018.34
2022-08-16T12:19:22.441Z,100015.53
2022-08-16T12:22:00.035Z,100011.50
2022-08-16T12:24:27.435Z,100005.91
2022-08-16T12:26:53.928Z,100005.91
2022-08-16T12:29:21.278Z,99997.47
2022-08-16T12:32:00.490Z,99996.72
2022-08-16T12:34:29.421Z,99991.88
2022-08-16T12:36:57.006Z,99989.84
2022-08-16T12:39:23.854Z,99984.25
2022-08-16T12:41:55.659Z,99989.84
2022-08-16T12:44:22.148Z,99982.69
2022-08-16T12:46:48.661Z,99983.47
2022-08-16T12:49:18.628Z,99981.44
2022-08-16T12:51:58.008Z,99984.25
2022-08-16T12:54:26.606Z,99985.03
2022-08-16T12:56:53.092Z,99986.59
2022-08-16T12:59:23.695Z,99979.44
2022-08-16T13:01:58.102Z,99980.22
2022-08-16T13:04:25.930Z,99980.22
2022-08-16T13:06:52.996Z,99972.56
2022-08-16T13:09:20.957Z,99969.00
2022-08-16T13:11:49.266Z,99967.75
2022-08-16T13:14:31.234Z,99967.75
2022-08-16T13:17:00.575Z,99959.34
2022-08-16T13:19:35.139Z,99962.94
2022-08-16T13:22:19.731Z,99962.94
2022-08-16T13:24:46.468Z,99956.53
2022-08-16T13:27:14.024Z,99958.91
2022-08-16T13:29:44.139Z,99953.31
2022-08-16T13:32:40.567Z,99948.91
2022-08-16T13:34:59.052Z,99949.69
2022-08-16T13:37:28.559Z,99943.31
2022-08-16T13:39:57.671Z,99940.50
2022-08-16T13:42:25.555Z,99943.31
2022-08-16T13:44:58.777Z,99941.28
2022-08-16T13:47:25.296Z,99940.88
2022-08-16T13:49:57.778Z,99929.28
2022-08-16T13:52:25.198Z,99934.91
2022-08-16T13:55:01.332Z,99928.50
2022-08-16T13:57:53.027Z,99922.88
2022-08-16T14:00:19.541Z,99928.50
2022-08-16T14:02:48.389Z,99930.53
2022-08-16T14:05:22.016Z,99925.69
2022-08-16T14:07:52.791Z,99934.09
2022-08-16T14:10:20.450Z,99927.72
2022-08-16T14:12:48.640Z,99924.91
2022-08-16T14:15:16.061Z,99912.94
2022-08-16T14:18:15.610Z,99927.72
2022-08-16T14:20:29.945Z,99920.09
2022-08-16T14:22:57.348Z,99926.94
2022-08-16T14:25:24.944Z,99927.72
2022-08-16T14:27:54.784Z,99919.31
2022-08-16T14:30:22.338Z,99919.31
2022-08-16T14:32:51.372Z,99913.69
2022-08-16T14:35:19.080Z,99903.75
2022-08-16T14:37:46.486Z,99910.69
2022-08-16T14:40:20.167Z,99904.97
2022-08-16T14:42:48.569Z,99911.31
2022-08-16T14:45:15.999Z,99907.13
2022-08-16T14:47:43.554Z,99904.97
2022-08-16T14:50:12.855Z,99900.13
2022-08-16T14:52:56.265Z,99906.59
2022-08-16T14:55:24.208Z,99903.34
2022-08-16T14:57:52.733Z,99901.94
2022-08-16T15:00:21.941Z,99903.75
2022-08-16T15:02:59.796Z,99908.44
2022-08-16T15:07:55.630Z,99909.53
2022-08-16T15:10:24.607Z,99904.38
2022-08-16T15:12:56.388Z,99905.50
2022-08-16T15:15:25.486Z,99909.59
2022-08-16T15:17:55.975Z,99899.44
2022-08-16T15:20:26.318Z,99899.75
2022-08-16T15:22:53.978Z,99904.75
2022-08-16T15:25:21.315Z,99899.28
2022-08-16T15:27:54.713Z,99906.53
2022-08-16T15:30:56.922Z,99915.53
2022-08-16T15:33:09.434Z,99906.47
2022-08-16T15:35:36.404Z,99914.88
2022-08-16T15:38:09.218Z,99910.06
2022-08-16T15:40:36.901Z,99919.28
2022-08-16T15:43:23.280Z,99924.09
2022-08-16T15:46:00.545Z,99921.28
2022-08-16T15:48:30.328Z,99924.88
2022-08-16T15:50:56.960Z,99922.09
2022-08-16T15:53:23.645Z,99922.53
2022-08-16T15:55:50.124Z,99925.34
2022-08-16T15:58:34.914Z,99918.47
2022-08-16T16:01:04.083Z,99922.09
2022-08-16T16:03:34.396Z,99928.91
2022-08-16T16:06:01.374Z,99932.50
2022-08-16T16:08:28.762Z,99936.09
2022-08-16T16:10:56.207Z,99938.09
2022-08-16T16:13:22.731Z,99943.88
2022-08-16T16:15:50.273Z,99941.81
2022-08-16T16:18:18.094Z,99946.69
2022-08-16T16:20:45.504Z,99938.59
2022-08-16T16:23:13.189Z,99942.94
2022-08-16T16:25:39.834Z,99948.78
2022-08-16T16:28:12.909Z,99953.91
2022-08-16T16:30:58.972Z,99947.84
2022-08-16T16:33:25.526Z,99956.00
2022-08-16T16:35:55.152Z,99960.09
2022-08-16T16:38:24.438Z,99970.09
2022-08-16T16:40:54.601Z,99967.41
2022-08-16T16:43:25.721Z,99962.44
2022-08-16T16:45:57.574Z,99971.00
2022-08-16T16:48:29.827Z,99970.00
2022-08-16T16:51:01.168Z,99966.03
2022-08-16T16:53:31.613Z,99966.97
2022-08-16T16:55:59.343Z,99967.28
2022-08-16T16:58:29.031Z,99966.50
2022-08-16T17:01:04.005Z,99972.78
2022-08-16T17:03:32.961Z,99970.28
2022-08-16T17:06:03.160Z,99982.09
2022-08-16T17:08:37.479Z,99979.56
2022-08-16T17:11:08.453Z,99985.59
2022-08-16T17:13:36.336Z,99982.28
2022-08-16T17:16:03.825Z,99989.69
2022-08-16T17:19:15.531Z,99993.72
2022-08-16T17:21:19.688Z,99990.38
2022-08-16T17:23:59.752Z,99996.19
2022-08-16T17:26:29.614Z,99990.72
2022-08-16T17:29:01.797Z,99998.47
2022-08-16T17:31:40.661Z,99995.44
2022-08-16T17:34:29.268Z,99997.16
2022-08-16T17:36:56.016Z,99993.91
2022-08-16T17:39:29.302Z,99998.25
2022-08-16T17:41:57.356Z,99994.19
2022-08-16T17:44:24.762Z,99995.88
2022-08-16T17:46:53.260Z,99996.47
2022-08-16T17:49:21.624Z,99999.69
2022-08-16T17:51:49.995Z,100005.84
2022-08-16T17:54:30.238Z,99998.25
2022-08-16T17:57:00.756Z,100000.53
2022-08-16T17:59:27.688Z,99995.38
2022-08-16T18:01:54.236Z,100001.31
2022-08-16T18:04:48.815Z,99991.81
2022-08-16T18:07:08.211Z,99993.31
2022-08-16T18:09:40.794Z,100002.63
2022-08-16T18:12:07.678Z,99997.16
2022-08-16T18:14:52.045Z,99991.75
2022-08-16T18:17:20.563Z,99991.41
2022-08-16T18:19:47.985Z,99992.34
2022-08-16T18:22:14.474Z,100003.44
2022-08-16T18:24:41.023Z,100010.88
2022-08-16T18:27:25.417Z,100000.88
2022-08-16T18:29:54.378Z,100004.66
2022-08-16T18:32:24.324Z,100003.09
2022-08-16T18:34:51.714Z,100004.84
2022-08-16T18:37:18.223Z,100002.50
2022-08-16T18:39:44.817Z,100011.06
2022-08-16T18:42:12.288Z,100002.31
2022-08-16T18:44:40.577Z,100010.16
2022-08-16T18:47:07.091Z,100010.16
2022-08-16T18:49:33.634Z,100014.91
2022-08-16T18:52:01.074Z,100013.72
2022-08-16T18:54:28.497Z,100019.34
2022-08-16T18:56:57.943Z,100010.66
2022-08-16T18:59:24.832Z,100017.31
2022-08-16T19:01:52.263Z,100021.38
2022-08-16T19:04:55.628Z,100014.03
2022-08-16T19:07:06.146Z,100019.06
2022-08-16T19:09:33.582Z,100013.97
2022-08-16T19:12:00.977Z,100023.69
2022-08-16T19:14:28.383Z,100022.72
2022-08-16T19:16:55.766Z,100017.66
2022-08-16T19:19:22.887Z,100020.88
2022-08-16T19:21:49.412Z,100017.25
2022-08-16T19:24:17.889Z,100015.13
2022-08-16T19:26:45.469Z,100019.00
2022-08-16T19:29:12.286Z,100019.31
2022-08-16T19:31:40.097Z,100023.03
2022-08-16T19:34:06.578Z,100023.63
2022-08-16T19:36:35.314Z,100023.53
2022-08-16T19:39:05.290Z,100025.53
2022-08-16T19:41:32.388Z,100028.16
2022-08-16T19:43:59.809Z,100024.69
2022-08-16T19:46:27.264Z,100024.13
2022-08-16T19:48:53.765Z,100023.00
2022-08-16T19:51:21.204Z,100027.56
2022-08-16T19:53:48.656Z,100025.91
2022-08-16T19:56:15.146Z,100026.34
2022-08-16T19:58:56.349Z,100033.41
2022-08-16T20:01:29.063Z,100030.00
2022-08-16T20:03:55.624Z,100030.53
2022-08-16T20:06:37.907Z,100027.38
2022-08-16T20:09:07.086Z,100027.81
2022-08-16T20:11:33.583Z,100030.84
2022-08-16T20:14:00.068Z,100028.84
2022-08-16T20:16:26.578Z,100029.41
2022-08-16T20:18:54.020Z,100031.19
2022-08-16T20:21:21.478Z,100029.84
2022-08-16T20:23:47.943Z,100034.44
2022-08-16T20:26:15.364Z,100040.50
2022-08-16T20:28:53.766Z,100039.94
2022-08-16T20:31:20.996Z,100038.38
2022-08-16T20:33:47.497Z,100035.25
2022-08-16T20:36:16.055Z,100044.91
2022-08-16T20:38:43.255Z,100054.28
2022-08-16T20:43:55.208Z,100033.13
2022-08-16T20:46:21.817Z,100041.19
2022-08-16T20:48:48.357Z,100036.53
2022-08-16T20:51:15.826Z,100040.75
2022-08-16T20:53:42.292Z,100030.22
2022-08-16T20:56:08.866Z,100029.91
2022-08-16T20:58:35.346Z,100028.00
2022-08-16T21:01:01.895Z,100032.13
2022-08-16T21:03:28.420Z,100034.06
2022-08-16T21:05:54.904Z,100024.22
2022-08-16T21:08:28.731Z,100032.91
2022-08-16T21:11:08.799Z,100031.53
2022-08-16T21:13:39.250Z,100030.38
2022-08-16T21:16:08.637Z,100026.59
2022-08-16T21:18:36.087Z,100025.47
2022-08-16T21:21:02.600Z,100033.06
2022-08-16T21:23:29.072Z,100029.16
2022-08-16T21:25:58.914Z,100021.72
2022-08-16T21:28:40.921Z,100031.72
2022-08-16T21:31:09.137Z,100029.16
2022-08-16T21:33:35.848Z,100027.75
2022-08-16T21:36:02.369Z,100033.81
2022-08-16T21:38:30.733Z,100037.31
2022-08-16T21:40:57.689Z,100031.94
2022-08-16T21:43:24.191Z,100034.94
2022-08-16T21:45:55.029Z,100030.38
2022-08-16T21:48:33.528Z,100032.84
2022-08-16T21:51:00.878Z,100028.22
2022-08-16T21:53:27.371Z,100031.91
2022-08-16T21:55:53.849Z,100034.16
2022-08-16T21:58:21.253Z,100035.63
2022-08-16T22:00:48.660Z,100029.53
2022-08-16T22:03:15.169Z,100037.88
2022-08-16T22:05:41.652Z,100032.50
2022-08-16T22:08:08.239Z,100026.66
2022-08-16T22:11:05.634Z,100035.31
2022-08-16T22:13:22.216Z,100026.19
2022-08-16T22:15:48.684Z,100026.09
2022-08-16T22:18:16.126Z,100034.03
2022-08-16T22:20:42.644Z,100038.03
2022-08-16T22:23:10.070Z,100040.28
2022-08-16T22:25:36.574Z,100039.25
2022-08-16T22:28:04.762Z,100038.97
2022-08-16T22:30:31.299Z,100039.19
2022-08-16T22:32:57.786Z,100038.97
2022-08-16T22:35:25.204Z,100048.97
2022-08-16T22:38:52.869Z,100051.16
2022-08-16T22:40:38.167Z,100048.75
2022-08-16T22:43:06.360Z,100048.44
2022-08-16T22:45:32.841Z,100047.47
2022-08-16T22:47:59.331Z,100050.50
2022-08-16T22:50:25.809Z,100046.19
2022-08-16T22:53:00.362Z,100046.41
2022-08-16T22:55:27.024Z,100043.81
2022-08-16T22:57:54.497Z,100046.91
2022-08-16T23:00:21.922Z,100042.47
2022-08-16T23:02:49.442Z,100047.13
2022-08-16T23:05:16.049Z,100044.41
2022-08-16T23:07:43.485Z,100045.34
2022-08-16T23:10:10.026Z,100045.59
2022-08-16T23:12:36.510Z,100040.00
2022-08-16T23:17:48.862Z,100027.88
2022-08-16T23:20:16.342Z,100034.97
2022-08-16T23:23:20.020Z,100040.06
2022-08-16T23:25:30.291Z,100029.25
2022-08-16T23:27:56.774Z,100034.28
2022-08-16T23:30:23.248Z,100030.84
2022-08-16T23:32:50.854Z,100034.03
2022-08-16T23:35:18.390Z,100037.38
2022-08-16T23:37:46.260Z,100032.75
2022-08-16T23:40:12.795Z,100034.69
2022-08-16T23:42:52.470Z,100030.03
2022-08-16T23:45:21.199Z,100028.22
2022-08-16T23:47:48.642Z,100032.06
2022-08-16T23:50:15.127Z,100030.59
2022-08-16T23:52:55.372Z,100023.97
2022-08-16T23:55:22.236Z,100015.31
2022-08-16T23:57:48.876Z,100022.72
